sensor_id;sensor_type;location;lat;lon;timestamp;pressure;altitude;pressure_sealevel;temperature;humidity
73106;BME280;61559;50.476;15.588;2023-10-31T00:00:20;95771.54;;;14.05;90.82
73106;BME280;61559;50.476;15.588;2023-10-31T00:03:11;95768.20;;;14.05;90.77
73106;BME280;61559;50.476;15.588;2023-10-31T00:05:42;95762.52;;;14.06;90.63
73106;BME280;61559;50.476;15.588;2023-10-31T00:08:14;95766.42;;;14.07;90.62
73106;BME280;61559;50.476;15.588;2023-10-31T00:10:45;95763.99;;;14.08;90.54
73106;BME280;61559;50.476;15.588;2023-10-31T00:13:17;95758.66;;;14.08;90.65
73106;BME280;61559;50.476;15.588;2023-10-31T00:15:48;95751.56;;;14.08;90.49
73106;BME280;61559;50.476;15.588;2023-10-31T00:18:19;95746.98;;;14.07;90.39
73106;BME280;61559;50.476;15.588;2023-10-31T00:20:51;95746.91;;;14.06;90.27
73106;BME280;61559;50.476;15.588;2023-10-31T00:23:23;95745.51;;;14.07;90.35
73106;BME280;61559;50.476;15.588;2023-10-31T00:25:54;95737.81;;;14.08;90.20
73106;BME280;61559;50.476;15.588;2023-10-31T00:28:25;95743.59;;;14.07;90.28
73106;BME280;61559;50.476;15.588;2023-10-31T00:30:57;95739.80;;;14.05;90.35
73106;BME280;61559;50.476;15.588;2023-10-31T00:33:28;95735.73;;;14.02;90.27
73106;BME280;61559;50.476;15.588;2023-10-31T00:35:59;95734.70;;;14.00;90.50
73106;BME280;61559;50.476;15.588;2023-10-31T00:38:30;95729.68;;;13.98;90.35
73106;BME280;61559;50.476;15.588;2023-10-31T00:41:01;95725.10;;;13.97;90.44
73106;BME280;61559;50.476;15.588;2023-10-31T00:43:33;95720.73;;;13.96;90.47
73106;BME280;61559;50.476;15.588;2023-10-31T00:46:05;95717.11;;;13.97;90.52
73106;BME280;61559;50.476;15.588;2023-10-31T00:48:36;95712.82;;;13.97;90.44
73106;BME280;61559;50.476;15.588;2023-10-31T00:51:07;95712.30;;;13.97;90.43
73106;BME280;61559;50.476;15.588;2023-10-31T00:53:38;95709.35;;;13.94;90.27
73106;BME280;61559;50.476;15.588;2023-10-31T00:56:10;95699.44;;;13.90;90.42
73106;BME280;61559;50.476;15.588;2023-10-31T00:58:41;95693.82;;;13.88;90.44
73106;BME280;61559;50.476;15.588;2023-10-31T01:01:12;95691.10;;;13.86;90.31
73106;BME280;61559;50.476;15.588;2023-10-31T01:03:44;95686.39;;;13.82;90.63
73106;BME280;61559;50.476;15.588;2023-10-31T01:06:15;95681.88;;;13.82;90.65
73106;BME280;61559;50.476;15.588;2023-10-31T01:08:47;95677.88;;;13.82;90.70
73106;BME280;61559;50.476;15.588;2023-10-31T01:11:18;95678.33;;;13.80;90.73
73106;BME280;61559;50.476;15.588;2023-10-31T01:13:49;95675.59;;;13.77;90.75
73106;BME280;61559;50.476;15.588;2023-10-31T01:16:20;95679.37;;;13.73;91.03
73106;BME280;61559;50.476;15.588;2023-10-31T01:18:51;95679.89;;;13.69;91.22
73106;BME280;61559;50.476;15.588;2023-10-31T01:21:22;95679.15;;;13.66;91.43
73106;BME280;61559;50.476;15.588;2023-10-31T01:23:54;95680.48;;;13.60;91.41
73106;BME280;61559;50.476;15.588;2023-10-31T01:26:25;95679.21;;;13.56;91.64
73106;BME280;61559;50.476;15.588;2023-10-31T01:28:56;95676.48;;;13.53;91.76
73106;BME280;61559;50.476;15.588;2023-10-31T01:31:28;95676.48;;;13.50;92.09
73106;BME280;61559;50.476;15.588;2023-10-31T01:33:59;95678.17;;;13.48;92.19
73106;BME280;61559;50.476;15.588;2023-10-31T01:36:30;95679.50;;;13.44;92.31
73106;BME280;61559;50.476;15.588;2023-10-31T01:39:02;95675.52;;;13.40;92.34
73106;BME280;61559;50.476;15.588;2023-10-31T01:41:33;95678.53;;;13.36;92.50
73106;BME280;61559;50.476;15.588;2023-10-31T01:44:05;95678.16;;;13.33;92.54
73106;BME280;61559;50.476;15.588;2023-10-31T01:46:36;95672.17;;;13.32;92.58
73106;BME280;61559;50.476;15.588;2023-10-31T01:49:07;95670.48;;;13.30;92.82
73106;BME280;61559;50.476;15.588;2023-10-31T01:51:39;95664.86;;;13.27;92.74
73106;BME280;61559;50.476;15.588;2023-10-31T01:54:11;95661.61;;;13.25;92.83
73106;BME280;61559;50.476;15.588;2023-10-31T01:56:43;95658.49;;;13.22;93.12
73106;BME280;61559;50.476;15.588;2023-10-31T01:59:15;95652.14;;;13.19;93.15
73106;BME280;61559;50.476;15.588;2023-10-31T02:01:46;95652.36;;;13.18;93.36
73106;BME280;61559;50.476;15.588;2023-10-31T02:04:18;95648.43;;;13.17;93.45
73106;BME280;61559;50.476;15.588;2023-10-31T02:06:49;95643.47;;;13.15;93.56
73106;BME280;61559;50.476;15.588;2023-10-31T02:09:21;95638.30;;;13.12;93.83
73106;BME280;61559;50.476;15.588;2023-10-31T02:11:54;95634.96;;;13.09;94.04
73106;BME280;61559;50.476;15.588;2023-10-31T02:14:25;95634.08;;;13.08;94.00
73106;BME280;61559;50.476;15.588;2023-10-31T02:16:57;95632.67;;;13.07;94.09
73106;BME280;61559;50.476;15.588;2023-10-31T02:19:28;95639.61;;;13.06;94.21
73106;BME280;61559;50.476;15.588;2023-10-31T02:21:59;95648.83;;;13.03;93.91
73106;BME280;61559;50.476;15.588;2023-10-31T02:24:31;95664.86;;;13.01;94.02
73106;BME280;61559;50.476;15.588;2023-10-31T02:27:04;95676.16;;;12.97;93.88
73106;BME280;61559;50.476;15.588;2023-10-31T02:29:35;95681.98;;;12.93;94.14
73106;BME280;61559;50.476;15.588;2023-10-31T02:32:06;95686.77;;;12.92;94.10
73106;BME280;61559;50.476;15.588;2023-10-31T02:34:38;95685.08;;;12.91;94.27
73106;BME280;61559;50.476;15.588;2023-10-31T02:37:09;95688.99;;;12.92;94.38
73106;BME280;61559;50.476;15.588;2023-10-31T02:39:40;95688.85;;;12.93;94.48
73106;BME280;61559;50.476;15.588;2023-10-31T02:42:13;95681.84;;;12.93;94.48
73106;BME280;61559;50.476;15.588;2023-10-31T02:44:44;95676.08;;;12.93;94.68
73106;BME280;61559;50.476;15.588;2023-10-31T02:47:16;95672.09;;;12.94;94.75
73106;BME280;61559;50.476;15.588;2023-10-31T02:49:48;95666.79;;;12.93;94.76
73106;BME280;61559;50.476;15.588;2023-10-31T02:52:19;95662.94;;;12.93;94.68
73106;BME280;61559;50.476;15.588;2023-10-31T02:54:50;95660.20;;;12.91;94.78
73106;BME280;61559;50.476;15.588;2023-10-31T02:57:21;95658.88;;;12.91;95.02
73106;BME280;61559;50.476;15.588;2023-10-31T02:59:52;95653.85;;;12.90;95.19
73106;BME280;61559;50.476;15.588;2023-10-31T03:02:23;95653.94;;;12.91;95.23
73106;BME280;61559;50.476;15.588;2023-10-31T03:04:55;95651.79;;;12.92;95.23
73106;BME280;61559;50.476;15.588;2023-10-31T03:07:26;95650.39;;;12.93;95.18
73106;BME280;61559;50.476;15.588;2023-10-31T03:09:57;95650.02;;;12.94;95.19
73106;BME280;61559;50.476;15.588;2023-10-31T03:12:31;95648.70;;;12.95;95.18
73106;BME280;61559;50.476;15.588;2023-10-31T03:15:02;95646.77;;;12.95;95.23
73106;BME280;61559;50.476;15.588;2023-10-31T03:17:33;95645.15;;;12.94;95.40
73106;BME280;61559;50.476;15.588;2023-10-31T03:20:06;95637.92;;;12.94;95.42
73106;BME280;61559;50.476;15.588;2023-10-31T03:22:56;95636.08;;;12.95;95.24
73106;BME280;61559;50.476;15.588;2023-10-31T03:25:27;95637.69;;;12.94;95.27
73106;BME280;61559;50.476;15.588;2023-10-31T03:27:58;95634.45;;;12.93;95.39
73106;BME280;61559;50.476;15.588;2023-10-31T03:30:30;95640.35;;;12.94;95.26
73106;BME280;61559;50.476;15.588;2023-10-31T03:33:02;95647.37;;;12.95;95.27
73106;BME280;61559;50.476;15.588;2023-10-31T03:35:34;95648.63;;;12.96;95.30
73106;BME280;61559;50.476;15.588;2023-10-31T03:38:06;95646.99;;;12.96;95.29
73106;BME280;61559;50.476;15.588;2023-10-31T03:40:37;95644.71;;;12.96;95.16
73106;BME280;61559;50.476;15.588;2023-10-31T03:43:08;95647.06;;;12.93;95.09
73106;BME280;61559;50.476;15.588;2023-10-31T03:45:40;95653.48;;;12.93;95.16
73106;BME280;61559;50.476;15.588;2023-10-31T03:48:11;95653.57;;;12.95;95.20
73106;BME280;61559;50.476;15.588;2023-10-31T03:50:42;95658.60;;;12.97;95.19
73106;BME280;61559;50.476;15.588;2023-10-31T03:53:13;95658.45;;;12.98;95.10
73106;BME280;61559;50.476;15.588;2023-10-31T03:55:46;95663.38;;;13.00;95.08
73106;BME280;61559;50.476;15.588;2023-10-31T03:58:17;95665.00;;;13.01;95.15
73106;BME280;61559;50.476;15.588;2023-10-31T04:00:49;95670.02;;;13.02;95.31
73106;BME280;61559;50.476;15.588;2023-10-31T04:03:20;95674.02;;;13.02;95.26
73106;BME280;61559;50.476;15.588;2023-10-31T04:05:51;95679.63;;;13.02;95.41
73106;BME280;61559;50.476;15.588;2023-10-31T04:08:23;95678.80;;;13.00;95.68
73106;BME280;61559;50.476;15.588;2023-10-31T04:10:54;95689.46;;;12.98;96.01
73106;BME280;61559;50.476;15.588;2023-10-31T04:13:26;95691.30;;;12.96;96.11
73106;BME280;61559;50.476;15.588;2023-10-31T04:15:57;95688.70;;;12.92;96.39
73106;BME280;61559;50.476;15.588;2023-10-31T04:18:29;95689.27;;;12.87;96.50
73106;BME280;61559;50.476;15.588;2023-10-31T04:21:00;95691.48;;;12.81;96.80
73106;BME280;61559;50.476;15.588;2023-10-31T04:23:32;95700.60;;;12.76;96.95
73106;BME280;61559;50.476;15.588;2023-10-31T04:26:06;95692.16;;;12.70;97.06
73106;BME280;61559;50.476;15.588;2023-10-31T04:28:37;95696.05;;;12.62;96.97
73106;BME280;61559;50.476;15.588;2023-10-31T04:31:11;95696.46;;;12.56;96.94
73106;BME280;61559;50.476;15.588;2023-10-31T04:33:42;95693.48;;;12.51;96.85
73106;BME280;61559;50.476;15.588;2023-10-31T04:36:13;95684.24;;;12.47;96.83
73106;BME280;61559;50.476;15.588;2023-10-31T04:38:44;95685.77;;;12.42;97.03
73106;BME280;61559;50.476;15.588;2023-10-31T04:41:16;95681.70;;;12.37;96.92
73106;BME280;61559;50.476;15.588;2023-10-31T04:43:47;95680.27;;;12.32;97.07
73106;BME280;61559;50.476;15.588;2023-10-31T04:46:18;95687.09;;;12.27;97.30
73106;BME280;61559;50.476;15.588;2023-10-31T04:48:50;95693.47;;;12.22;97.40
73106;BME280;61559;50.476;15.588;2023-10-31T04:51:21;95700.95;;;12.16;97.65
73106;BME280;61559;50.476;15.588;2023-10-31T04:53:52;95705.52;;;12.11;97.88
73106;BME280;61559;50.476;15.588;2023-10-31T04:56:23;95703.50;;;12.05;98.09
73106;BME280;61559;50.476;15.588;2023-10-31T04:58:55;95706.27;;;12.00;98.08
73106;BME280;61559;50.476;15.588;2023-10-31T05:01:26;95708.36;;;11.94;98.07
73106;BME280;61559;50.476;15.588;2023-10-31T05:03:57;95715.26;;;11.90;98.16
73106;BME280;61559;50.476;15.588;2023-10-31T05:06:41;95721.11;;;11.85;98.38
73106;BME280;61559;50.476;15.588;2023-10-31T05:09:13;95733.83;;;11.80;98.62
73106;BME280;61559;50.476;15.588;2023-10-31T05:11:45;95735.98;;;11.75;98.98
73106;BME280;61559;50.476;15.588;2023-10-31T05:14:16;95738.84;;;11.74;99.31
73106;BME280;61559;50.476;15.588;2023-10-31T05:16:48;95734.40;;;11.72;99.67
73106;BME280;61559;50.476;15.588;2023-10-31T05:19:19;95739.48;;;11.73;99.69
73106;BME280;61559;50.476;15.588;2023-10-31T05:21:50;95741.47;;;11.72;99.44
73106;BME280;61559;50.476;15.588;2023-10-31T05:24:21;95748.73;;;11.68;99.37
73106;BME280;61559;50.476;15.588;2023-10-31T05:26:53;95750.98;;;11.66;99.32
73106;BME280;61559;50.476;15.588;2023-10-31T05:29:24;95761.73;;;11.63;99.52
73106;BME280;61559;50.476;15.588;2023-10-31T05:31:55;95765.23;;;11.60;99.49
73106;BME280;61559;50.476;15.588;2023-10-31T05:34:26;95774.21;;;11.59;99.50
73106;BME280;61559;50.476;15.588;2023-10-31T05:36:57;95781.11;;;11.57;99.62
73106;BME280;61559;50.476;15.588;2023-10-31T05:39:28;95786.03;;;11.55;99.68
73106;BME280;61559;50.476;15.588;2023-10-31T05:41:59;95783.73;;;11.54;99.72
73106;BME280;61559;50.476;15.588;2023-10-31T05:44:31;95793.07;;;11.52;99.78
73106;BME280;61559;50.476;15.588;2023-10-31T05:47:03;95796.20;;;11.48;100.00
73106;BME280;61559;50.476;15.588;2023-10-31T05:49:35;95808.11;;;11.46;100.00
73106;BME280;61559;50.476;15.588;2023-10-31T05:52:06;95814.86;;;11.43;100.00
73106;BME280;61559;50.476;15.588;2023-10-31T05:54:37;95820.66;;;11.42;100.00
73106;BME280;61559;50.476;15.588;2023-10-31T05:57:08;95829.83;;;11.39;100.00
73106;BME280;61559;50.476;15.588;2023-10-31T05:59:40;95837.91;;;11.37;100.00
73106;BME280;61559;50.476;15.588;2023-10-31T06:02:11;95847.26;;;11.37;100.00
73106;BME280;61559;50.476;15.588;2023-10-31T06:04:42;95852.98;;;11.36;100.00
73106;BME280;61559;50.476;15.588;2023-10-31T06:07:14;95847.60;;;11.34;100.00
73106;BME280;61559;50.476;15.588;2023-10-31T06:09:46;95854.08;;;11.35;100.00
73106;BME280;61559;50.476;15.588;2023-10-31T06:12:17;95860.70;;;11.34;100.00
73106;BME280;61559;50.476;15.588;2023-10-31T06:14:48;95865.41;;;11.34;100.00
73106;BME280;61559;50.476;15.588;2023-10-31T06:17:19;95874.91;;;11.34;100.00
73106;BME280;61559;50.476;15.588;2023-10-31T06:19:51;95877.92;;;11.33;100.00
73106;BME280;61559;50.476;15.588;2023-10-31T06:22:22;95875.92;;;11.32;100.00
73106;BME280;61559;50.476;15.588;2023-10-31T06:24:54;95870.61;;;11.31;100.00
73106;BME280;61559;50.476;15.588;2023-10-31T06:27:28;95871.35;;;11.31;100.00
73106;BME280;61559;50.476;15.588;2023-10-31T06:29:59;95881.59;;;11.32;100.00
73106;BME280;61559;50.476;15.588;2023-10-31T06:32:49;95886.88;;;11.31;100.00
73106;BME280;61559;50.476;15.588;2023-10-31T06:35:22;95887.33;;;11.31;100.00
73106;BME280;61559;50.476;15.588;2023-10-31T06:37:55;95889.60;;;11.31;100.00
73106;BME280;61559;50.476;15.588;2023-10-31T06:40:27;95894.98;;;11.32;100.00
73106;BME280;61559;50.476;15.588;2023-10-31T06:42:58;95891.15;;;11.31;100.00
73106;BME280;61559;50.476;15.588;2023-10-31T06:45:30;95900.13;;;11.31;100.00
73106;BME280;61559;50.476;15.588;2023-10-31T06:48:01;95903.23;;;11.32;100.00
73106;BME280;61559;50.476;15.588;2023-10-31T06:50:33;95910.75;;;11.32;100.00
73106;BME280;61559;50.476;15.588;2023-10-31T06:53:05;95911.34;;;11.31;100.00
73106;BME280;61559;50.476;15.588;2023-10-31T06:55:36;95905.42;;;11.31;100.00
73106;BME280;61559;50.476;15.588;2023-10-31T06:58:07;95912.38;;;11.32;100.00
73106;BME280;61559;50.476;15.588;2023-10-31T07:00:39;95906.55;;;11.32;100.00
73106;BME280;61559;50.476;15.588;2023-10-31T07:03:10;95918.25;;;11.31;100.00
73106;BME280;61559;50.476;15.588;2023-10-31T07:05:45;95918.77;;;11.31;100.00
73106;BME280;61559;50.476;15.588;2023-10-31T07:08:17;95915.45;;;11.31;100.00
73106;BME280;61559;50.476;15.588;2023-10-31T07:10:48;95912.80;;;11.32;100.00
73106;BME280;61559;50.476;15.588;2023-10-31T07:13:19;95909.51;;;11.33;100.00
73106;BME280;61559;50.476;15.588;2023-10-31T07:15:51;95912.09;;;11.33;99.95
73106;BME280;61559;50.476;15.588;2023-10-31T07:18:22;95913.42;;;11.34;99.94
73106;BME280;61559;50.476;15.588;2023-10-31T07:20:54;95923.52;;;11.34;99.78
73106;BME280;61559;50.476;15.588;2023-10-31T07:23:25;95928.69;;;11.35;99.73
73106;BME280;61559;50.476;15.588;2023-10-31T07:25:56;95937.09;;;11.36;99.62
73106;BME280;61559;50.476;15.588;2023-10-31T07:28:28;95942.63;;;11.37;99.42
73106;BME280;61559;50.476;15.588;2023-10-31T07:31:01;95950.08;;;11.37;99.46
73106;BME280;61559;50.476;15.588;2023-10-31T07:33:32;95955.44;;;11.37;99.46
73106;BME280;61559;50.476;15.588;2023-10-31T07:36:04;95953.09;;;11.37;99.30
73106;BME280;61559;50.476;15.588;2023-10-31T07:38:36;95964.30;;;11.39;99.28
73106;BME280;61559;50.476;15.588;2023-10-31T07:41:07;95963.95;;;11.40;99.14
73106;BME280;61559;50.476;15.588;2023-10-31T07:43:38;95967.64;;;11.40;98.99
73106;BME280;61559;50.476;15.588;2023-10-31T07:46:09;95975.38;;;11.41;98.89
73106;BME280;61559;50.476;15.588;2023-10-31T07:48:40;95981.80;;;11.42;98.66
73106;BME280;61559;50.476;15.588;2023-10-31T07:51:11;95985.63;;;11.42;98.53
73106;BME280;61559;50.476;15.588;2023-10-31T07:53:43;95985.06;;;11.43;98.43
73106;BME280;61559;50.476;15.588;2023-10-31T07:56:20;95985.67;;;11.45;98.31
73106;BME280;61559;50.476;15.588;2023-10-31T07:58:53;95986.12;;;11.45;98.12
73106;BME280;61559;50.476;15.588;2023-10-31T08:01:25;95992.55;;;11.46;98.01
73106;BME280;61559;50.476;15.588;2023-10-31T08:03:56;95993.60;;;11.48;98.03
73106;BME280;61559;50.476;15.588;2023-10-31T08:06:27;95986.00;;;11.47;97.95
73106;BME280;61559;50.476;15.588;2023-10-31T08:08:58;95990.04;;;11.46;97.88
73106;BME280;61559;50.476;15.588;2023-10-31T08:11:31;96000.80;;;11.46;97.67
73106;BME280;61559;50.476;15.588;2023-10-31T08:14:04;96018.63;;;11.47;97.73
73106;BME280;61559;50.476;15.588;2023-10-31T08:16:35;96030.86;;;11.47;97.78
73106;BME280;61559;50.476;15.588;2023-10-31T08:19:07;96030.98;;;11.47;97.88
73106;BME280;61559;50.476;15.588;2023-10-31T08:21:38;96038.08;;;11.47;97.98
73106;BME280;61559;50.476;15.588;2023-10-31T08:24:10;96033.73;;;11.48;97.98
73106;BME280;61559;50.476;15.588;2023-10-31T08:26:43;96036.76;;;11.48;97.95
73106;BME280;61559;50.476;15.588;2023-10-31T08:29:14;96036.48;;;11.48;97.96
73106;BME280;61559;50.476;15.588;2023-10-31T08:31:45;96040.14;;;11.47;97.83
73106;BME280;61559;50.476;15.588;2023-10-31T08:34:16;96037.10;;;11.46;97.71
73106;BME280;61559;50.476;15.588;2023-10-31T08:36:47;96033.05;;;11.46;97.61
73106;BME280;61559;50.476;15.588;2023-10-31T08:39:18;96040.55;;;11.46;97.37
73106;BME280;61559;50.476;15.588;2023-10-31T08:41:54;96035.75;;;11.45;96.91
73106;BME280;61559;50.476;15.588;2023-10-31T08:44:26;96045.60;;;11.43;96.46
73106;BME280;61559;50.476;15.588;2023-10-31T08:46:58;96058.63;;;11.42;96.42
73106;BME280;61559;50.476;15.588;2023-10-31T08:49:29;96075.70;;;11.41;96.26
73106;BME280;61559;50.476;15.588;2023-10-31T08:52:00;96087.48;;;11.41;96.62
73106;BME280;61559;50.476;15.588;2023-10-31T08:54:33;96089.92;;;11.42;96.80
73106;BME280;61559;50.476;15.588;2023-10-31T08:57:05;96094.10;;;11.41;96.56
73106;BME280;61559;50.476;15.588;2023-10-31T08:59:36;96093.79;;;11.39;96.39
73106;BME280;61559;50.476;15.588;2023-10-31T09:02:07;96096.41;;;11.38;96.17
73106;BME280;61559;50.476;15.588;2023-10-31T09:04:38;96083.95;;;11.38;96.08
73106;BME280;61559;50.476;15.588;2023-10-31T09:07:09;96077.98;;;11.37;95.41
73106;BME280;61559;50.476;15.588;2023-10-31T09:09:40;96094.34;;;11.37;95.11
73106;BME280;61559;50.476;15.588;2023-10-31T09:12:12;96106.27;;;11.37;95.14
73106;BME280;61559;50.476;15.588;2023-10-31T09:14:43;96124.95;;;11.36;95.01
73106;BME280;61559;50.476;15.588;2023-10-31T09:17:14;96138.24;;;11.33;94.65
73106;BME280;61559;50.476;15.588;2023-10-31T09:19:46;96138.36;;;11.31;94.06
73106;BME280;61559;50.476;15.588;2023-10-31T09:22:17;96136.59;;;11.31;94.11
73106;BME280;61559;50.476;15.588;2023-10-31T09:24:48;96141.83;;;11.32;94.11
73106;BME280;61559;50.476;15.588;2023-10-31T09:27:20;96154.84;;;11.31;93.85
73106;BME280;61559;50.476;15.588;2023-10-31T09:29:51;96159.34;;;11.31;93.16
73106;BME280;61559;50.476;15.588;2023-10-31T09:32:22;96158.69;;;11.32;92.93
73106;BME280;61559;50.476;15.588;2023-10-31T09:34:53;96164.61;;;11.34;92.67
73106;BME280;61559;50.476;15.588;2023-10-31T09:37:24;96162.35;;;11.39;92.61
73106;BME280;61559;50.476;15.588;2023-10-31T09:39:55;96162.30;;;11.45;92.66
73106;BME280;61559;50.476;15.588;2023-10-31T09:42:26;96154.81;;;11.51;92.33
73106;BME280;61559;50.476;15.588;2023-10-31T09:44:58;96161.65;;;11.55;92.03
73106;BME280;61559;50.476;15.588;2023-10-31T09:47:33;96164.41;;;11.57;91.26
73106;BME280;61559;50.476;15.588;2023-10-31T09:50:05;96164.11;;;11.56;90.91
73106;BME280;61559;50.476;15.588;2023-10-31T09:52:39;96153.63;;;11.56;90.68
73106;BME280;61559;50.476;15.588;2023-10-31T09:55:11;96155.73;;;11.54;89.91
73106;BME280;61559;50.476;15.588;2023-10-31T09:57:43;96165.40;;;11.55;90.56
73106;BME280;61559;50.476;15.588;2023-10-31T10:00:16;96154.23;;;11.57;89.91
73106;BME280;61559;50.476;15.588;2023-10-31T10:02:47;96152.86;;;11.58;88.37
73106;BME280;61559;50.476;15.588;2023-10-31T10:05:19;96159.85;;;11.62;87.31
73106;BME280;61559;50.476;15.588;2023-10-31T10:07:50;96155.89;;;11.68;87.85
73106;BME280;61559;50.476;15.588;2023-10-31T10:10:26;96150.27;;;11.72;87.13
73106;BME280;61559;50.476;15.588;2023-10-31T10:12:58;96152.10;;;11.71;85.69
73106;BME280;61559;50.476;15.588;2023-10-31T10:15:44;96150.17;;;11.70;85.58
73106;BME280;61559;50.476;15.588;2023-10-31T10:18:27;96147.56;;;11.73;86.07
73106;BME280;61559;50.476;15.588;2023-10-31T10:21:00;96148.20;;;11.76;85.09
73106;BME280;61559;50.476;15.588;2023-10-31T10:23:33;96133.66;;;11.78;85.02
73106;BME280;61559;50.476;15.588;2023-10-31T10:26:06;96124.59;;;11.82;85.54
73106;BME280;61559;50.476;15.588;2023-10-31T10:28:37;96119.12;;;11.87;85.49
73106;BME280;61559;50.476;15.588;2023-10-31T10:31:08;96115.61;;;11.89;83.47
73106;BME280;61559;50.476;15.588;2023-10-31T10:33:41;96108.87;;;11.92;83.67
73106;BME280;61559;50.476;15.588;2023-10-31T10:36:13;96105.05;;;11.98;83.98
73106;BME280;61559;50.476;15.588;2023-10-31T10:38:48;96106.00;;;12.03;83.08
73106;BME280;61559;50.476;15.588;2023-10-31T10:41:22;96106.35;;;12.06;82.35
73106;BME280;61559;50.476;15.588;2023-10-31T10:43:57;96113.48;;;12.06;81.70
73106;BME280;61559;50.476;15.588;2023-10-31T10:46:36;96111.66;;;12.07;82.16
73106;BME280;61559;50.476;15.588;2023-10-31T10:49:11;96114.87;;;12.10;82.50
73106;BME280;61559;50.476;15.588;2023-10-31T10:51:50;96119.32;;;12.12;82.48
73106;BME280;61559;50.476;15.588;2023-10-31T10:54:29;96123.01;;;12.14;81.45
73106;BME280;61559;50.476;15.588;2023-10-31T10:57:09;96121.77;;;12.15;81.11
73106;BME280;61559;50.476;15.588;2023-10-31T10:59:48;96124.19;;;12.13;80.44
73106;BME280;61559;50.476;15.588;2023-10-31T11:02:23;96120.80;;;12.12;80.67
73106;BME280;61559;50.476;15.588;2023-10-31T11:04:55;96119.10;;;12.11;80.81
73106;BME280;61559;50.476;15.588;2023-10-31T11:07:34;96125.95;;;12.12;80.93
73106;BME280;61559;50.476;15.588;2023-10-31T11:10:06;96128.50;;;12.09;80.39
73106;BME280;61559;50.476;15.588;2023-10-31T11:12:39;96144.20;;;12.08;80.24
73106;BME280;61559;50.476;15.588;2023-10-31T11:15:14;96155.58;;;12.05;79.54
73106;BME280;61559;50.476;15.588;2023-10-31T11:17:48;96163.39;;;12.05;80.12
73106;BME280;61559;50.476;15.588;2023-10-31T11:20:20;96168.08;;;12.08;80.47
73106;BME280;61559;50.476;15.588;2023-10-31T11:22:56;96175.81;;;12.12;79.78
73106;BME280;61559;50.476;15.588;2023-10-31T11:25:28;96185.70;;;12.14;79.83
73106;BME280;61559;50.476;15.588;2023-10-31T11:28:17;96186.83;;;12.16;79.58
73106;BME280;61559;50.476;15.588;2023-10-31T11:30:49;96189.19;;;12.17;79.17
73106;BME280;61559;50.476;15.588;2023-10-31T11:33:27;96192.48;;;12.20;79.68
73106;BME280;61559;50.476;15.588;2023-10-31T11:36:03;96188.61;;;12.23;78.87
73106;BME280;61559;50.476;15.588;2023-10-31T11:38:37;96182.38;;;12.25;78.64
73106;BME280;61559;50.476;15.588;2023-10-31T11:41:08;96182.13;;;12.29;78.33
73106;BME280;61559;50.476;15.588;2023-10-31T11:43:53;96184.95;;;12.30;78.16
73106;BME280;61559;50.476;15.588;2023-10-31T11:46:25;96191.46;;;12.32;77.86
73106;BME280;61559;50.476;15.588;2023-10-31T11:48:57;96191.25;;;12.32;77.00
73106;BME280;61559;50.476;15.588;2023-10-31T11:51:30;96203.25;;;12.36;77.55
73106;BME280;61559;50.476;15.588;2023-10-31T11:54:02;96203.81;;;12.40;77.60
73106;BME280;61559;50.476;15.588;2023-10-31T11:56:37;96201.85;;;12.41;76.98
73106;BME280;61559;50.476;15.588;2023-10-31T11:59:08;96205.22;;;12.40;76.40
73106;BME280;61559;50.476;15.588;2023-10-31T12:01:46;96209.06;;;12.41;76.99
73106;BME280;61559;50.476;15.588;2023-10-31T12:04:24;96209.27;;;12.40;76.87
73106;BME280;61559;50.476;15.588;2023-10-31T12:06:59;96205.20;;;12.39;76.83
73106;BME280;61559;50.476;15.588;2023-10-31T12:09:31;96205.91;;;12.37;77.05
73106;BME280;61559;50.476;15.588;2023-10-31T12:12:02;96207.61;;;12.37;77.01
73106;BME280;61559;50.476;15.588;2023-10-31T12:14:34;96209.27;;;12.34;76.42
73106;BME280;61559;50.476;15.588;2023-10-31T12:17:07;96212.72;;;12.28;75.86
73106;BME280;61559;50.476;15.588;2023-10-31T12:19:40;96212.09;;;12.20;75.42
73106;BME280;61559;50.476;15.588;2023-10-31T12:22:15;96216.02;;;12.16;75.77
73106;BME280;61559;50.476;15.588;2023-10-31T12:24:46;96221.67;;;12.13;76.45
73106;BME280;61559;50.476;15.588;2023-10-31T12:27:18;96217.36;;;12.10;76.36
73106;BME280;61559;50.476;15.588;2023-10-31T12:30:01;96216.40;;;12.05;74.76
73106;BME280;61559;50.476;15.588;2023-10-31T12:32:33;96210.77;;;11.99;74.30
73106;BME280;61559;50.476;15.588;2023-10-31T12:35:06;96205.92;;;11.94;74.71
73106;BME280;61559;50.476;15.588;2023-10-31T12:37:38;96202.94;;;11.92;75.47
73106;BME280;61559;50.476;15.588;2023-10-31T12:42:41;96205.81;;;11.83;74.74
73106;BME280;61559;50.476;15.588;2023-10-31T12:45:14;96221.51;;;11.78;74.47
73106;BME280;61559;50.476;15.588;2023-10-31T12:48:01;96224.24;;;11.75;75.43
73106;BME280;61559;50.476;15.588;2023-10-31T12:50:34;96228.98;;;11.73;74.81
73106;BME280;61559;50.476;15.588;2023-10-31T12:53:06;96237.92;;;11.69;74.95
73106;BME280;61559;50.476;15.588;2023-10-31T12:55:41;96238.88;;;11.65;75.78
73106;BME280;61559;50.476;15.588;2023-10-31T12:58:22;96248.44;;;11.59;75.14
73106;BME280;61559;50.476;15.588;2023-10-31T13:00:53;96259.90;;;11.54;75.36
73106;BME280;61559;50.476;15.588;2023-10-31T13:03:25;96260.63;;;11.49;76.34
73106;BME280;61559;50.476;15.588;2023-10-31T13:05:57;96254.08;;;11.45;76.31
73106;BME280;61559;50.476;15.588;2023-10-31T13:08:28;96246.73;;;11.42;76.64
73106;BME280;61559;50.476;15.588;2023-10-31T13:10:59;96242.92;;;11.39;76.75
73106;BME280;61559;50.476;15.588;2023-10-31T13:13:32;96238.23;;;11.36;76.74
73106;BME280;61559;50.476;15.588;2023-10-31T13:16:04;96233.85;;;11.34;77.41